createdAt,value
2022-08-02T00:00:22.468Z,54.44
2022-08-02T00:02:52.237Z,54.49
2022-08-02T00:05:22.027Z,53.96
2022-08-02T00:07:51.789Z,54.30
2022-08-02T00:10:21.559Z,54.29
2022-08-02T00:12:51.645Z,54.29
2022-08-02T00:15:23.098Z,53.96
2022-08-02T00:17:52.871Z,53.28
2022-08-02T00:20:22.623Z,53.23
2022-08-02T00:22:52.433Z,53.47
2022-08-02T00:25:22.262Z,53.58
2022-08-02T00:27:52.327Z,53.32
2022-08-02T00:30:22.061Z,53.57
2022-08-02T00:32:51.831Z,53.65
2022-08-02T00:35:21.664Z,53.75
2022-08-02T00:37:51.568Z,53.73
2022-08-02T00:40:23.725Z,53.59
2022-08-02T00:43:06.892Z,53.62
2022-08-02T00:46:01.980Z,54.07
2022-08-02T00:48:14.782Z,54.30
2022-08-02T00:50:44.548Z,54.54
2022-08-02T00:53:14.330Z,54.54
2022-08-02T00:55:44.455Z,54.54
2022-08-02T00:58:14.217Z,54.93
2022-08-02T01:00:44.051Z,54.98
2022-08-02T01:03:13.933Z,54.90
2022-08-02T01:06:09.145Z,55.34
2022-08-02T01:08:15.697Z,55.25
2022-08-02T01:10:45.736Z,55.82
2022-08-02T01:13:15.771Z,55.37
2022-08-02T01:15:48.847Z,55.34
2022-08-02T01:18:21.640Z,55.50
2022-08-02T01:21:00.583Z,55.62
2022-08-02T01:23:58.718Z,55.62
2022-08-02T01:26:39.972Z,56.04
2022-08-02T01:29:21.608Z,56.00
2022-08-02T01:32:09.444Z,56.09
2022-08-02T01:34:48.778Z,55.73
2022-08-02T01:37:21.582Z,55.73
2022-08-02T01:39:54.680Z,55.64
2022-08-02T01:42:27.887Z,55.87
2022-08-02T01:45:00.007Z,56.08
2022-08-02T01:47:36.040Z,55.68
2022-08-02T01:50:09.950Z,55.58
2022-08-02T01:52:42.766Z,55.86
2022-08-02T01:55:22.919Z,55.71
2022-08-02T01:57:57.416Z,56.01
2022-08-02T02:00:30.273Z,56.01
2022-08-02T02:03:01.787Z,55.91
2022-08-02T02:05:33.257Z,56.09
2022-08-02T02:08:06.743Z,55.86
2022-08-02T02:10:39.668Z,55.67
2022-08-02T02:13:12.707Z,56.08
2022-08-02T02:15:48.154Z,55.92
2022-08-02T02:18:20.922Z,55.85
2022-08-02T02:20:51.628Z,55.82
2022-08-02T02:23:25.952Z,56.79
2022-08-02T02:25:55.870Z,56.99
2022-08-02T02:28:30.187Z,57.64
2022-08-02T02:31:11.696Z,57.46
2022-08-02T02:33:53.328Z,58.12
2022-08-02T02:36:23.958Z,58.17
2022-08-02T02:38:56.057Z,57.89
2022-08-02T02:41:27.043Z,58.07
2022-08-02T02:44:02.143Z,57.78
2022-08-02T02:46:33.004Z,57.86
2022-08-02T02:49:03.700Z,57.87
2022-08-02T02:51:34.329Z,58.65
2022-08-02T02:54:31.069Z,59.05
2022-08-02T02:56:36.697Z,59.24
2022-08-02T02:59:08.894Z,59.29
2022-08-02T03:01:57.120Z,59.21
2022-08-02T03:04:14.963Z,59.47
2022-08-02T03:06:45.085Z,59.35
2022-08-02T03:09:15.317Z,59.95
2022-08-02T03:11:45.910Z,60.16
2022-08-02T03:14:15.809Z,59.82
2022-08-02T03:16:47.751Z,59.96
2022-08-02T03:19:18.951Z,59.84
2022-08-02T03:21:57.422Z,59.73
2022-08-02T03:24:27.711Z,59.57
2022-08-02T03:26:53.087Z,59.80
2022-08-02T03:29:23.154Z,60.16
2022-08-02T03:31:53.189Z,59.71
2022-08-02T03:34:23.999Z,59.51
2022-08-02T03:36:56.960Z,59.77
2022-08-02T03:39:27.984Z,59.92
2022-08-02T03:41:57.813Z,59.85
2022-08-02T03:44:28.293Z,59.91
2022-08-02T03:46:58.908Z,59.93
2022-08-02T03:49:32.083Z,60.24
2022-08-02T03:52:02.960Z,60.24
2022-08-02T03:54:34.673Z,60.35
2022-08-02T03:57:09.628Z,60.15
2022-08-02T03:59:47.245Z,60.33
2022-08-02T04:02:16.742Z,60.47
2022-08-02T04:04:46.583Z,60.21
2022-08-02T04:07:18.539Z,59.71
2022-08-02T04:09:48.125Z,60.09
2022-08-02T04:12:17.889Z,60.00
2022-08-02T04:14:48.302Z,60.58
2022-08-02T04:17:20.723Z,60.58
2022-08-02T04:19:53.906Z,60.52
2022-08-02T04:22:32.179Z,60.55
2022-08-02T04:25:06.109Z,60.37
2022-08-02T04:27:50.929Z,60.20
2022-08-02T04:30:11.347Z,60.70
2022-08-02T04:32:41.747Z,60.88
2022-08-02T04:35:19.202Z,60.79
2022-08-02T04:38:05.805Z,60.94
2022-08-02T04:40:17.747Z,61.10
2022-08-02T04:42:47.584Z,61.09
2022-08-02T04:45:18.623Z,61.68
2022-08-02T04:48:01.961Z,61.93
2022-08-02T04:50:20.902Z,61.84
2022-08-02T04:52:50.671Z,61.47
2022-08-02T04:55:20.434Z,61.87
2022-08-02T04:57:58.172Z,62.14
2022-08-02T05:00:29.698Z,62.41
2022-08-02T05:03:00.293Z,62.03
2022-08-02T05:05:30.299Z,61.58
2022-08-02T05:08:00.164Z,61.89
2022-08-02T05:10:29.721Z,61.32
2022-08-02T05:12:59.499Z,61.27
2022-08-02T05:15:33.012Z,60.31
2022-08-02T05:18:00.436Z,61.22
2022-08-02T05:20:30.266Z,61.21
2022-08-02T05:23:00.040Z,61.21
2022-08-02T05:25:29.881Z,61.15
2022-08-02T05:28:00.036Z,61.23
2022-08-02T05:30:29.807Z,61.20
2022-08-02T05:32:59.640Z,61.71
2022-08-02T05:35:29.484Z,61.18
2022-08-02T05:37:59.249Z,60.48
2022-08-02T05:40:28.855Z,59.86
2022-08-02T05:42:58.652Z,59.58
2022-08-02T05:45:28.976Z,59.59
2022-08-02T05:47:58.788Z,60.45
2022-08-02T05:50:28.954Z,60.20
2022-08-02T05:53:01.765Z,60.45
2022-08-02T05:55:37.374Z,60.23
2022-08-02T05:58:21.780Z,60.37
2022-08-02T06:00:53.248Z,60.23
2022-08-02T06:03:28.931Z,59.59
2022-08-02T06:06:10.388Z,59.61
2022-08-02T06:08:47.516Z,59.47
2022-08-02T06:11:17.613Z,59.68
2022-08-02T06:13:47.922Z,59.33
2022-08-02T06:16:31.603Z,59.33
2022-08-02T06:18:50.451Z,59.31
2022-08-02T06:22:33.326Z,59.26
2022-08-02T06:23:58.763Z,58.12
2022-08-02T06:26:26.648Z,58.12
2022-08-02T06:28:58.775Z,58.06
2022-08-02T06:31:28.550Z,58.06
2022-08-02T06:33:58.679Z,59.16
2022-08-02T06:36:37.000Z,59.16
2022-08-02T06:39:23.369Z,58.73
2022-08-02T06:41:55.233Z,58.13
2022-08-02T06:47:11.065Z,57.69
2022-08-02T06:49:52.486Z,57.41
2022-08-02T06:52:03.577Z,57.41
2022-08-02T06:54:35.301Z,57.28
2022-08-02T06:57:05.416Z,56.92
2022-08-02T06:59:35.540Z,55.88
2022-08-02T07:02:05.617Z,55.88
2022-08-02T07:04:35.758Z,55.10
2022-08-02T07:07:05.563Z,54.79
2022-08-02T07:09:35.640Z,54.80
2022-08-02T07:12:06.500Z,54.80
2022-08-02T07:14:36.268Z,54.26
2022-08-02T07:17:06.055Z,54.26
2022-08-02T07:19:37.913Z,54.68
2022-08-02T07:22:07.481Z,55.24
2022-08-02T07:24:38.203Z,54.32
2022-08-02T07:27:11.667Z,53.70
2022-08-02T07:29:45.048Z,53.11
2022-08-02T07:32:12.969Z,53.11
2022-08-02T07:34:43.076Z,52.23
2022-08-02T07:37:26.250Z,51.52
2022-08-02T07:39:45.806Z,51.52
2022-08-02T07:42:17.230Z,51.93
2022-08-02T07:44:49.202Z,51.79
2022-08-02T07:47:18.945Z,51.17
2022-08-02T07:49:48.722Z,50.34
2022-08-02T07:52:19.258Z,50.62
2022-08-02T07:54:49.509Z,50.55
2022-08-02T07:57:20.961Z,49.69
2022-08-02T07:59:51.620Z,49.69
2022-08-02T08:02:21.394Z,49.38
2022-08-02T08:04:51.075Z,48.52
2022-08-02T08:07:21.306Z,48.52
2022-08-02T08:09:53.637Z,48.08
2022-08-02T08:12:22.325Z,47.30
2022-08-02T08:14:52.349Z,47.05
2022-08-02T08:17:22.195Z,45.59
2022-08-02T08:19:52.980Z,44.79
2022-08-02T08:22:23.328Z,44.88
2022-08-02T08:24:53.124Z,45.59
2022-08-02T08:27:23.484Z,44.95
2022-08-02T08:29:53.581Z,43.77
2022-08-02T08:32:23.668Z,43.39
2022-08-02T08:34:53.679Z,42.22
2022-08-02T08:37:23.833Z,42.04
2022-08-02T08:39:58.192Z,43.10
2022-08-02T08:42:25.768Z,42.20
2022-08-02T08:44:58.688Z,42.45
2022-08-02T08:47:33.952Z,41.71
2022-08-02T08:50:18.036Z,41.71
2022-08-02T08:52:45.827Z,40.61
2022-08-02T08:55:16.660Z,39.40
2022-08-02T08:57:47.168Z,38.43
2022-08-02T09:00:18.800Z,38.58
2022-08-02T09:02:48.937Z,38.50
2022-08-02T09:05:19.441Z,38.48
2022-08-02T09:07:52.799Z,38.48
2022-08-02T09:10:45.178Z,38.90
2022-08-02T09:13:38.444Z,38.54
2022-08-02T09:15:57.649Z,39.32
2022-08-02T09:18:40.640Z,38.58
2022-08-02T09:21:11.153Z,38.93
2022-08-02T09:23:42.846Z,39.16
2022-08-02T09:26:15.483Z,38.50
2022-08-02T09:28:47.681Z,37.94
2022-08-02T09:31:19.821Z,37.55
2022-08-02T09:34:00.780Z,37.55
2022-08-02T09:36:41.606Z,37.78
2022-08-02T09:39:13.899Z,37.37
2022-08-02T09:41:45.607Z,37.08
2022-08-02T09:44:19.230Z,36.98
2022-08-02T09:46:48.993Z,36.35
2022-08-02T09:49:20.414Z,35.62
2022-08-02T09:51:52.733Z,35.37
2022-08-02T09:54:25.719Z,35.71
2022-08-02T09:56:58.910Z,34.10
2022-08-02T09:59:30.039Z,34.17
2022-08-02T10:02:04.106Z,34.42
2022-08-02T10:04:33.862Z,34.06
2022-08-02T10:07:05.332Z,34.38
2022-08-02T10:09:37.976Z,33.95
2022-08-02T10:12:08.407Z,33.90
2022-08-02T10:14:39.597Z,32.99
2022-08-02T10:17:09.419Z,32.99
2022-08-02T10:20:02.814Z,33.37
2022-08-02T10:22:14.786Z,32.70
2022-08-02T10:24:48.016Z,31.53
2022-08-02T10:27:22.239Z,30.96
2022-08-02T10:29:55.972Z,31.26
2022-08-02T10:32:31.401Z,31.22
2022-08-02T10:35:20.166Z,30.95
2022-08-02T10:37:42.209Z,31.47
2022-08-02T10:40:14.157Z,32.16
2022-08-02T10:42:48.772Z,32.43
2022-08-02T10:45:20.390Z,32.85
2022-08-02T10:48:10.418Z,32.28
2022-08-02T10:50:52.872Z,32.16
2022-08-02T10:53:33.910Z,32.00
2022-08-02T10:56:06.492Z,31.31
2022-08-02T10:58:37.945Z,32.04
2022-08-02T11:01:13.741Z,33.23
2022-08-02T11:03:46.771Z,32.51
2022-08-02T11:06:25.145Z,31.70
2022-08-02T11:08:48.051Z,31.39
2022-08-02T11:11:19.752Z,30.55
2022-08-02T11:14:07.140Z,29.78
2022-08-02T11:16:59.213Z,29.75
2022-08-02T11:19:29.201Z,30.00
2022-08-02T11:22:25.238Z,29.45
2022-08-02T11:24:51.058Z,29.30
2022-08-02T11:27:22.428Z,28.54
2022-08-02T11:29:52.182Z,28.57
2022-08-02T11:32:31.107Z,27.78
2022-08-02T11:34:56.081Z,28.41
2022-08-02T11:37:36.808Z,27.79
2022-08-02T11:40:19.435Z,28.32
2022-08-02T11:42:45.582Z,28.48
2022-08-02T11:45:21.348Z,28.79
2022-08-02T11:47:50.642Z,28.25
2022-08-02T11:50:29.853Z,27.94
2022-08-02T11:52:55.904Z,27.51
2022-08-02T11:55:32.633Z,27.36
2022-08-02T11:58:05.876Z,27.27
2022-08-02T12:00:36.974Z,28.63
2022-08-02T12:03:08.347Z,28.08
2022-08-02T12:06:05.276Z,27.21
2022-08-02T12:08:09.968Z,26.92
2022-08-02T12:10:42.782Z,26.96
2022-08-02T12:13:12.537Z,26.82
2022-08-02T12:15:47.326Z,25.78
2022-08-02T12:18:37.137Z,25.91
2022-08-02T12:21:24.427Z,25.53
2022-08-02T12:23:57.171Z,26.34
2022-08-02T12:26:25.597Z,26.34
2022-08-02T12:29:01.376Z,26.36
2022-08-02T12:31:55.628Z,26.92
2022-08-02T12:34:20.748Z,26.36
2022-08-02T12:37:07.237Z,25.24
2022-08-02T12:39:44.693Z,25.48
2022-08-02T12:42:17.045Z,25.76
2022-08-02T12:44:55.490Z,25.76
2022-08-02T12:47:25.621Z,24.68
2022-08-02T12:50:30.991Z,24.98
2022-08-02T12:53:12.588Z,23.93
2022-08-02T12:55:59.830Z,24.05
2022-08-02T12:58:22.652Z,23.47
2022-08-02T13:01:00.937Z,23.40
2022-08-02T13:04:07.847Z,24.09
2022-08-02T13:06:12.196Z,23.77
2022-08-02T13:08:34.556Z,23.55
2022-08-02T13:11:04.379Z,23.97
2022-08-02T13:13:34.583Z,23.55
2022-08-02T13:16:06.835Z,23.63
2022-08-02T13:18:36.764Z,23.27
2022-08-02T13:21:08.224Z,22.82
2022-08-02T13:23:54.859Z,23.06
2022-08-02T13:26:13.091Z,24.25
2022-08-02T13:28:42.910Z,23.69
2022-08-02T13:31:35.491Z,23.49
2022-08-02T13:33:43.834Z,22.55
2022-08-02T13:36:13.538Z,22.98
2022-08-02T13:38:43.286Z,23.57
2022-08-02T13:41:13.745Z,23.77
2022-08-02T13:43:54.910Z,23.48
2022-08-02T13:46:15.374Z,23.51
2022-08-02T13:48:46.818Z,23.67
2022-08-02T13:51:16.649Z,23.17
2022-08-02T13:53:46.410Z,24.06
2022-08-02T13:56:16.007Z,24.29
2022-08-02T13:58:46.225Z,23.22
2022-08-02T14:01:16.098Z,23.66
2022-08-02T14:04:07.496Z,24.04
2022-08-02T14:06:17.138Z,23.77
2022-08-02T14:08:47.176Z,24.25
2022-08-02T14:11:16.971Z,24.21
2022-08-02T14:13:46.776Z,23.92
2022-08-02T14:16:16.546Z,23.86
2022-08-02T14:18:46.300Z,23.95
2022-08-02T14:21:15.942Z,24.03
2022-08-02T14:23:50.297Z,23.81
2022-08-02T14:26:27.259Z,24.32
2022-08-02T14:28:49.912Z,24.87
2022-08-02T14:31:19.790Z,24.15
2022-08-02T14:33:49.356Z,24.15
2022-08-02T14:36:27.513Z,23.69
2022-08-02T14:38:50.585Z,23.69
2022-08-02T14:41:20.585Z,24.17
2022-08-02T14:44:05.363Z,24.54
2022-08-02T14:46:41.262Z,24.38
2022-08-02T14:49:12.218Z,24.62
2022-08-02T14:51:43.661Z,24.62
2022-08-02T14:54:14.744Z,24.29
2022-08-02T14:56:44.650Z,24.18
2022-08-02T14:59:16.093Z,24.81
2022-08-02T15:01:45.900Z,24.94
2022-08-02T15:04:15.747Z,24.95
2022-08-02T15:06:45.644Z,24.83
2022-08-02T15:09:15.542Z,24.76
2022-08-02T15:11:47.704Z,24.56
2022-08-02T15:14:21.895Z,24.30
2022-08-02T15:16:58.740Z,24.55
2022-08-02T15:19:21.839Z,25.47
2022-08-02T15:21:54.563Z,25.42
2022-08-02T15:24:22.830Z,24.87
2022-08-02T15:26:53.431Z,24.43
2022-08-02T15:29:23.266Z,25.20
2022-08-02T15:31:53.030Z,25.42
2022-08-02T15:34:22.873Z,24.99
2022-08-02T15:36:52.347Z,26.81
2022-08-02T15:39:22.101Z,26.71
2022-08-02T15:41:52.153Z,26.16
2022-08-02T15:44:21.987Z,26.31
2022-08-02T15:46:51.859Z,26.31
2022-08-02T15:49:24.315Z,26.11
2022-08-02T15:51:55.069Z,25.83
2022-08-02T15:54:24.843Z,26.41
2022-08-02T15:56:54.746Z,26.03
2022-08-02T15:59:24.285Z,26.56
2022-08-02T16:01:54.107Z,27.07
2022-08-02T16:04:23.913Z,26.96
2022-08-02T16:06:53.665Z,26.00
2022-08-02T16:09:23.201Z,26.00
2022-08-02T16:11:52.963Z,26.14
2022-08-02T16:14:22.730Z,26.24
2022-08-02T16:16:52.326Z,26.24
2022-08-02T16:19:47.850Z,25.93
2022-08-02T16:21:56.298Z,25.53
2022-08-02T16:24:26.832Z,25.44
2022-08-02T16:26:56.599Z,25.99
2022-08-02T16:29:26.359Z,26.35
2022-08-02T16:31:56.135Z,26.68
2022-08-02T16:34:25.898Z,26.45
2022-08-02T16:36:55.463Z,26.06
2022-08-02T16:39:25.503Z,26.06
2022-08-02T16:41:55.270Z,27.02
2022-08-02T16:44:27.644Z,26.73
2022-08-02T16:46:56.742Z,27.00
2022-08-02T16:50:06.387Z,27.32
2022-08-02T16:51:59.967Z,26.52
2022-08-02T16:54:29.959Z,26.73
2022-08-02T16:56:59.724Z,27.34
2022-08-02T16:59:34.042Z,27.97
2022-08-02T17:02:11.750Z,27.73
2022-08-02T17:04:34.843Z,27.70
2022-08-02T17:07:11.075Z,27.91
2022-08-02T17:10:03.456Z,27.84
2022-08-02T17:12:16.067Z,28.33
2022-08-02T17:14:55.400Z,29.24
2022-08-02T17:17:15.821Z,29.24
2022-08-02T17:19:48.004Z,28.39
2022-08-02T17:22:17.783Z,28.73
2022-08-02T17:24:48.401Z,28.65
2022-08-02T17:27:18.285Z,29.31
2022-08-02T17:29:49.788Z,29.00
2022-08-02T17:32:19.550Z,29.00
2022-08-02T17:34:59.804Z,28.68
2022-08-02T17:37:20.786Z,28.00
2022-08-02T17:39:52.171Z,27.98
2022-08-02T17:42:23.265Z,28.65
2022-08-02T17:45:01.041Z,30.03
2022-08-02T17:47:30.894Z,31.30
2022-08-02T17:49:59.763Z,31.85
2022-08-02T17:52:51.022Z,32.18
2022-08-02T17:55:03.372Z,30.83
2022-08-02T17:57:55.565Z,29.90
2022-08-02T18:00:08.527Z,28.79
2022-08-02T18:02:38.363Z,27.66
2022-08-02T18:05:11.853Z,28.16
2022-08-02T18:07:43.288Z,29.60
2022-08-02T18:10:11.912Z,30.91
2022-08-02T18:12:41.970Z,31.80
2022-08-02T18:15:14.509Z,32.83
2022-08-02T18:17:44.125Z,33.67
2022-08-02T18:20:15.936Z,34.92
2022-08-02T18:22:45.699Z,34.80
2022-08-02T18:25:36.373Z,35.17
2022-08-02T18:27:48.351Z,35.44
2022-08-02T18:30:21.673Z,35.83
2022-08-02T18:33:59.446Z,35.86
2022-08-02T18:35:23.637Z,35.46
2022-08-02T18:37:57.231Z,35.58
2022-08-02T18:40:26.080Z,35.92
2022-08-02T18:42:56.066Z,35.98
2022-08-02T18:45:36.888Z,36.24
2022-08-02T18:47:57.413Z,36.78
2022-08-02T18:50:31.674Z,37.16
2022-08-02T18:53:00.544Z,37.79
2022-08-02T18:56:03.286Z,37.47
2022-08-02T18:58:18.632Z,37.71
2022-08-02T19:00:33.297Z,37.70
2022-08-02T19:03:03.300Z,37.81
2022-08-02T19:05:52.287Z,38.50
2022-08-02T19:08:06.349Z,38.26
2022-08-02T19:10:38.484Z,38.72
2022-08-02T19:13:17.566Z,39.06
2022-08-02T19:15:42.428Z,39.43
2022-08-02T19:18:13.744Z,39.51
2022-08-02T19:20:48.162Z,40.17
2022-08-02T19:23:15.046Z,40.28
2022-08-02T19:25:50.453Z,41.32
2022-08-02T19:28:26.415Z,41.04
2022-08-02T19:30:49.618Z,41.43
2022-08-02T19:36:01.370Z,41.50
2022-08-02T19:38:25.868Z,42.86
2022-08-02T19:40:56.201Z,43.54
2022-08-02T19:44:22.840Z,43.37
2022-08-02T19:45:58.168Z,44.70
2022-08-02T19:48:28.284Z,45.68
2022-08-02T19:51:01.062Z,45.39
2022-08-02T19:53:47.460Z,45.76
2022-08-02T19:56:03.314Z,46.19
2022-08-02T19:58:34.442Z,47.04
2022-08-02T20:01:05.045Z,47.34
2022-08-02T20:03:51.127Z,47.09
2022-08-02T20:06:10.186Z,47.44
2022-08-02T20:08:45.325Z,47.92
2022-08-02T20:11:14.961Z,49.18
2022-08-02T20:13:47.097Z,49.99
2022-08-02T20:16:20.903Z,50.64
2022-08-02T20:18:47.960Z,50.64
2022-08-02T20:21:34.504Z,50.36
2022-08-02T20:23:49.291Z,50.96
2022-08-02T20:26:20.066Z,50.96
2022-08-02T20:28:51.703Z,51.77
2022-08-02T20:31:21.475Z,51.01
2022-08-02T20:33:55.943Z,51.45
2022-08-02T20:36:22.796Z,52.17
2022-08-02T20:38:52.621Z,51.92
2022-08-02T20:41:37.135Z,52.39
2022-08-02T20:43:56.096Z,52.67
2022-08-02T20:46:26.275Z,52.69
2022-08-02T20:48:59.512Z,53.57
2022-08-02T20:51:33.313Z,53.36
2022-08-02T20:53:58.965Z,54.02
2022-08-02T20:56:29.186Z,54.73
2022-08-02T20:59:03.766Z,53.70
2022-08-02T21:01:36.984Z,53.91
2022-08-02T21:04:02.524Z,52.64
2022-08-02T21:06:33.992Z,52.70
2022-08-02T21:09:03.756Z,53.22
2022-08-02T21:11:36.041Z,52.97
2022-08-02T21:14:09.239Z,53.12
2022-08-02T21:16:39.065Z,53.98
2022-08-02T21:19:09.816Z,53.95
2022-08-02T21:21:41.047Z,54.08
2022-08-02T21:24:12.489Z,53.69
2022-08-02T21:26:42.283Z,54.07
2022-08-02T21:29:13.780Z,54.07
2022-08-02T21:31:44.252Z,54.43
2022-08-02T21:34:26.575Z,54.20
2022-08-02T21:36:47.769Z,55.29
2022-08-02T21:39:17.245Z,56.01
2022-08-02T21:41:47.464Z,56.01
2022-08-02T21:44:18.860Z,56.03
2022-08-02T21:46:50.439Z,55.16
2022-08-02T21:49:26.960Z,55.30
2022-08-02T21:51:54.414Z,56.09
2022-08-02T21:54:24.251Z,56.75
2022-08-02T21:56:54.696Z,55.85
2022-08-02T21:59:25.219Z,55.46
2022-08-02T22:01:57.769Z,56.28
2022-08-02T22:04:27.828Z,55.92
2022-08-02T22:06:57.962Z,56.15
2022-08-02T22:09:43.312Z,56.10
2022-08-02T22:12:00.017Z,55.71
2022-08-02T22:14:29.776Z,55.20
2022-08-02T22:16:59.615Z,56.15
2022-08-02T22:19:29.745Z,56.15
2022-08-02T22:22:00.378Z,56.38
2022-08-02T22:24:30.579Z,56.38
2022-08-02T22:27:00.469Z,56.62
2022-08-02T22:29:31.929Z,56.78
2022-08-02T22:32:02.666Z,56.90
2022-08-02T22:34:51.167Z,56.52
2022-08-02T22:37:05.761Z,56.72
2022-08-02T22:39:36.095Z,56.62
2022-08-02T22:42:07.369Z,56.75
2022-08-02T22:44:37.104Z,56.85
2022-08-02T22:49:37.897Z,57.37
2022-08-02T22:52:06.218Z,57.50
2022-08-02T22:54:36.388Z,57.67
2022-08-02T22:57:06.513Z,58.15
2022-08-02T22:58:57.124Z,41.26
2022-08-02T22:59:39.672Z,57.81
2022-08-02T23:02:11.103Z,57.63
2022-08-02T23:04:40.990Z,58.14
2022-08-02T23:07:10.817Z,58.28
2022-08-02T23:09:40.586Z,58.56
2022-08-02T23:12:12.063Z,58.65
2022-08-02T23:14:42.119Z,58.83
2022-08-02T23:17:29.798Z,58.83
2022-08-02T23:19:59.335Z,58.91
2022-08-02T23:22:32.347Z,58.36
2022-08-02T23:25:02.280Z,58.42
2022-08-02T23:27:33.015Z,58.73
2022-08-02T23:30:03.092Z,59.34
2022-08-02T23:32:33.144Z,59.32
2022-08-02T23:35:02.622Z,58.95
2022-08-02T23:38:00.351Z,58.50
2022-08-02T23:40:05.459Z,58.50
2022-08-02T23:42:35.217Z,59.21
2022-08-02T23:45:05.123Z,59.79
2022-08-02T23:47:34.890Z,59.60
2022-08-02T23:50:07.153Z,60.33
2022-08-02T23:52:36.920Z,59.74
2022-08-02T23:55:08.609Z,59.46
2022-08-02T23:57:38.421Z,59.70
